Time;durP1;ratioP1;P1;durP2;ratioP2;P2;SDS_P1;SDS_P2;PMS_P1;PMS_P2;Temp;Humidity;BMP_temperature;BMP_pressure;BME280_temperature;BME280_humidity;BME280_pressure;Samples;Min_cycle;Max_cycle;Signal;HPM_P1;HPM_P2
2023/06/17 00:01:33;;;;;;;5.85;5.25;;;;;;;;;;5072052;28;20404;-62
2023/06/17 00:03:59;;;;;;;5.78;5.13;;;;;;;;;;5071705;28;20141;-62
2023/06/17 00:06:26;;;;;;;8.10;5.20;;;;;;;;;;5071867;28;20071;-62
2023/06/17 00:08:54;;;;;;;9.05;5.20;;;;;;;;;;5071677;28;20098;-62
2023/06/17 00:11:22;;;;;;;5.78;5.28;;;;;;;;;;5071678;28;20094;-62
2023/06/17 00:13:48;;;;;;;5.68;5.13;;;;;;;;;;5071849;28;20471;-62
2023/06/17 00:16:17;;;;;;;5.80;5.20;;;;;;;;;;5071727;28;20048;-62
2023/06/17 00:18:43;;;;;;;5.22;4.80;;;;;;;;;;5071698;28;20052;-62
2023/06/17 00:21:10;;;;;;;6.75;5.40;;;;;;;;;;5071815;28;20408;-62
2023/06/17 00:23:36;;;;;;;6.03;5.35;;;;;;;;;;5071615;28;20087;-62
2023/06/17 00:26:03;;;;;;;6.10;5.65;;;;;;;;;;5071686;28;20052;-62
2023/06/17 00:28:29;;;;;;;6.60;5.60;;;;;;;;;;5070477;28;20048;-62
2023/06/17 00:30:55;;;;;;;6.07;5.47;;;;;;;;;;5071866;28;20044;-62
2023/06/17 00:33:22;;;;;;;6.10;5.50;;;;;;;;;;5071744;28;20057;-62
2023/06/17 00:35:48;;;;;;;5.95;5.35;;;;;;;;;;5067373;28;20048;-62
2023/06/17 00:38:15;;;;;;;7.18;5.68;;;;;;;;;;5061477;28;20060;-62
2023/06/17 00:40:41;;;;;;;6.00;5.43;;;;;;;;;;5071364;28;20072;-61
2023/06/17 00:43:08;;;;;;;8.57;5.55;;;;;;;;;;5071403;28;20056;-61
2023/06/17 00:45:38;;;;;;;7.75;5.65;;;;;;;;;;5071614;28;20059;-62
2023/06/17 00:48:08;;;;;;;6.60;5.25;;;;;;;;;;5071307;28;20053;-61
2023/06/17 00:50:36;;;;;;;6.13;5.53;;;;;;;;;;5071331;28;20045;-62
2023/06/17 00:53:03;;;;;;;6.70;6.00;;;;;;;;;;5071255;28;20044;-62
2023/06/17 00:55:32;;;;;;;5.72;5.32;;;;;;;;;;5047880;28;20050;-62
2023/06/17 00:57:59;;;;;;;6.00;5.43;;;;;;;;;;5066687;28;20485;-62
2023/06/17 01:00:25;;;;;;;5.72;5.22;;;;;;;;;;5043027;28;20512;-62
2023/06/17 01:02:52;;;;;;;6.40;5.80;;;;;;;;;;5069916;28;20763;-62
2023/06/17 01:05:19;;;;;;;6.40;5.73;;;;;;;;;;5071195;28;20091;-62
2023/06/17 01:08:05;;;;;;;7.78;5.72;;;;;;;;;;5070909;28;20331;-62
2023/06/17 01:10:43;;;;;;;5.78;4.80;;;;;;;;;;5071180;28;20543;-62
2023/06/17 01:13:12;;;;;;;8.70;5.53;;;;;;;;;;5071297;28;20053;-62
2023/06/17 01:15:39;;;;;;;6.60;5.95;;;;;;;;;;5071345;28;20555;-62
2023/06/17 01:18:07;;;;;;;7.50;5.82;;;;;;;;;;5071018;28;20596;-61
2023/06/17 01:20:35;;;;;;;8.10;5.88;;;;;;;;;;5070965;28;20056;-61
2023/06/17 01:23:03;;;;;;;7.85;6.50;;;;;;;;;;5070899;28;20058;-62
2023/06/17 01:25:31;;;;;;;6.50;5.90;;;;;;;;;;5071163;28;20059;-61
2023/06/17 01:28:03;;;;;;;7.45;5.93;;;;;;;;;;5070875;28;20088;-62
2023/06/17 01:30:30;;;;;;;6.72;5.65;;;;;;;;;;5071063;28;20048;-61
2023/06/17 01:32:57;;;;;;;7.15;6.45;;;;;;;;;;5071457;28;20045;-62
2023/06/17 01:35:23;;;;;;;;;;;;;;;;;;5071557;28;20140;-62
2023/06/17 01:38:10;;;;;;;7.57;5.33;;;;;;;;;;5071062;28;19994;-61
2023/06/17 01:40:39;;;;;;;6.22;5.55;;;;;;;;;;5073560;28;20056;-62
2023/06/17 01:43:06;;;;;;;5.78;5.18;;;;;;;;;;5074793;28;20122;-61
2023/06/17 01:45:32;;;;;;;8.00;5.80;;;;;;;;;;5074324;28;20052;-62
2023/06/17 01:47:59;;;;;;;6.40;5.72;;;;;;;;;;5073470;28;20044;-61
2023/06/17 01:50:26;;;;;;;9.33;5.60;;;;;;;;;;5068765;28;20070;-61
2023/06/17 01:52:52;;;;;;;6.20;5.63;;;;;;;;;;5074100;28;20292;-61
2023/06/17 01:55:19;;;;;;;6.30;5.63;;;;;;;;;;5074121;28;20052;-62
2023/06/17 01:57:46;;;;;;;7.28;5.47;;;;;;;;;;5074155;28;20408;-62
2023/06/17 02:00:13;;;;;;;6.38;5.60;;;;;;;;;;5074350;28;20110;-62
2023/06/17 02:02:39;;;;;;;5.70;5.20;;;;;;;;;;5073785;28;20040;-62
2023/06/17 02:05:07;;;;;;;6.63;5.82;;;;;;;;;;5074274;28;20135;-61
2023/06/17 02:07:34;;;;;;;;;;;;;;;;;;5074099;28;20101;-62
2023/06/17 02:10:01;;;;;;;6.72;5.43;;;;;;;;;;5074075;28;19931;-61
2023/06/17 02:12:30;;;;;;;7.07;5.93;;;;;;;;;;5074014;28;20055;-61
2023/06/17 02:14:57;;;;;;;6.33;5.57;;;;;;;;;;5074238;28;20053;-61
2023/06/17 02:17:27;;;;;;;7.10;5.80;;;;;;;;;;5074310;28;20052;-62
2023/06/17 02:19:54;;;;;;;6.20;5.50;;;;;;;;;;5073786;28;20053;-61
2023/06/17 02:22:21;;;;;;;8.45;5.68;;;;;;;;;;5073769;28;20055;-62
2023/06/17 02:24:47;;;;;;;6.13;5.20;;;;;;;;;;5073533;28;20059;-62
2023/06/17 02:27:14;;;;;;;7.00;5.93;;;;;;;;;;5073870;28;20049;-61
2023/06/17 02:29:40;;;;;;;7.50;5.82;;;;;;;;;;5073492;28;20044;-62
2023/06/17 02:32:07;;;;;;;8.27;5.75;;;;;;;;;;5073793;28;20067;-62
2023/06/17 02:34:37;;;;;;;8.00;6.40;;;;;;;;;;5073865;28;20048;-61
2023/06/17 02:37:03;;;;;;;9.30;6.15;;;;;;;;;;5073435;28;20049;-62
2023/06/17 02:39:30;;;;;;;19.83;7.60;;;;;;;;;;5073681;28;20053;-62
2023/06/17 02:41:56;;;;;;;8.70;7.18;;;;;;;;;;5073584;28;20036;-61
2023/06/17 02:44:23;;;;;;;22.17;9.02;;;;;;;;;;5073397;28;20542;-61
2023/06/17 02:46:49;;;;;;;9.75;8.48;;;;;;;;;;5072954;28;20052;-62
2023/06/17 02:49:16;;;;;;;12.85;10.05;;;;;;;;;;5073169;28;20041;-61
2023/06/17 02:51:42;;;;;;;15.68;10.40;;;;;;;;;;5072224;28;20546;-62
2023/06/17 02:54:10;;;;;;;12.38;10.05;;;;;;;;;;5073148;28;20506;-62
2023/06/17 02:56:37;;;;;;;9.90;8.90;;;;;;;;;;5072947;28;20053;-61
2023/06/17 02:59:03;;;;;;;13.43;9.90;;;;;;;;;;5073083;28;20044;-61
2023/06/17 03:01:31;;;;;;;13.38;10.13;;;;;;;;;;5072930;28;20084;-62
2023/06/17 03:04:01;;;;;;;12.20;9.60;;;;;;;;;;5072733;28;20053;-62
2023/06/17 03:06:31;;;;;;;10.05;8.93;;;;;;;;;;5072976;28;20056;-62
2023/06/17 03:08:58;;;;;;;11.95;9.25;;;;;;;;;;5055230;28;20434;-62
2023/06/17 03:11:24;;;;;;;10.90;8.50;;;;;;;;;;5072570;28;20044;-62
2023/06/17 03:13:51;;;;;;;10.00;8.95;;;;;;;;;;5072800;28;20052;-61
2023/06/17 03:16:17;;;;;;;8.95;8.00;;;;;;;;;;5072959;28;20085;-61
2023/06/17 03:18:44;;;;;;;10.90;9.20;;;;;;;;;;5072454;28;20056;-61
2023/06/17 03:21:10;;;;;;;12.63;10.02;;;;;;;;;;5072672;28;20049;-62
2023/06/17 03:23:40;;;;;;;10.88;9.82;;;;;;;;;;5072338;28;20404;-61
2023/06/17 03:26:07;;;;;;;16.23;10.77;;;;;;;;;;5072556;28;20101;-61
2023/06/17 03:28:33;;;;;;;13.25;9.82;;;;;;;;;;5072228;28;20125;-61
2023/06/17 03:31:00;;;;;;;27.10;14.18;;;;;;;;;;5072221;28;20056;-61
2023/06/17 03:33:27;;;;;;;31.33;15.50;;;;;;;;;;5072149;28;20135;-61
2023/06/17 03:35:53;;;;;;;17.48;13.98;;;;;;;;;;5072436;28;20169;-61
2023/06/17 03:38:20;;;;;;;17.20;14.65;;;;;;;;;;5072545;28;20563;-61
2023/06/17 03:40:46;;;;;;;15.90;14.23;;;;;;;;;;5072528;28;20483;-62
2023/06/17 03:43:16;;;;;;;17.85;13.85;;;;;;;;;;5072312;28;20082;-62
2023/06/17 03:45:42;;;;;;;15.80;14.15;;;;;;;;;;5072116;28;20139;-62
2023/06/17 03:48:09;;;;;;;14.15;12.90;;;;;;;;;;5071716;28;20060;-61
2023/06/17 03:50:35;;;;;;;15.30;13.90;;;;;;;;;;5072190;28;20040;-61
2023/06/17 03:53:02;;;;;;;23.00;16.77;;;;;;;;;;5072169;28;20416;-61
2023/06/17 03:55:29;;;;;;;17.48;14.98;;;;;;;;;;5071928;28;20044;-61
2023/06/17 03:57:55;;;;;;;19.35;16.92;;;;;;;;;;5071800;28;20538;-61
2023/06/17 04:00:22;;;;;;;19.52;17.52;;;;;;;;;;5071644;28;20048;-62
2023/06/17 04:02:49;;;;;;;17.00;15.45;;;;;;;;;;5071530;28;20087;-61
2023/06/17 04:05:17;;;;;;;16.48;14.98;;;;;;;;;;5071937;28;20066;-62
2023/06/17 04:07:44;;;;;;;19.10;17.23;;;;;;;;;;5071753;28;20119;-62
2023/06/17 04:10:10;;;;;;;19.13;17.17;;;;;;;;;;5071918;28;20051;-61
2023/06/17 04:12:37;;;;;;;17.13;15.52;;;;;;;;;;5071983;28;20094;-61
2023/06/17 04:15:07;;;;;;;18.02;16.38;;;;;;;;;;5071605;28;20063;-61
2023/06/17 04:17:37;;;;;;;18.05;16.17;;;;;;;;;;5071786;28;20116;-62
2023/06/17 04:20:10;;;;;;;18.23;15.57;;;;;;;;;;5071532;28;20510;-62
2023/06/17 04:22:42;;;;;;;17.48;15.70;;;;;;;;;;5071520;28;20045;-62
2023/06/17 04:25:10;;;;;;;17.13;15.40;;;;;;;;;;5071567;28;20060;-62
2023/06/17 04:27:38;;;;;;;19.95;15.10;;;;;;;;;;5071264;28;20579;-61
2023/06/17 04:30:05;;;;;;;17.23;15.70;;;;;;;;;;5071453;28;20048;-61
2023/06/17 04:32:34;;;;;;;15.52;14.23;;;;;;;;;;5071674;28;20079;-62
2023/06/17 04:35:04;;;;;;;17.65;15.75;;;;;;;;;;5071464;28;20048;-62
2023/06/17 04:37:34;;;;;;;17.65;15.95;;;;;;;;;;5071271;28;20496;-61
2023/06/17 04:40:00;;;;;;;18.05;16.45;;;;;;;;;;5071353;28;20079;-62
2023/06/17 04:42:27;;;;;;;14.75;13.50;;;;;;;;;;5071253;28;20514;-62
2023/06/17 04:44:54;;;;;;;13.85;12.68;;;;;;;;;;5071462;28;20072;-62
2023/06/17 04:47:20;;;;;;;13.02;11.93;;;;;;;;;;5071208;28;20444;-62
2023/06/17 04:49:47;;;;;;;15.25;13.80;;;;;;;;;;5071697;28;20044;-62
2023/06/17 04:52:14;;;;;;;14.82;13.32;;;;;;;;;;5071428;28;20048;-62
2023/06/17 04:54:41;;;;;;;15.50;12.13;;;;;;;;;;5071108;28;20048;-62
2023/06/17 04:57:08;;;;;;;12.38;11.15;;;;;;;;;;5071472;28;20055;-61
2023/06/17 04:59:35;;;;;;;12.97;11.77;;;;;;;;;;5071479;28;20451;-62
2023/06/17 05:02:01;;;;;;;16.42;13.30;;;;;;;;;;5070999;28;20290;-61
2023/06/17 05:04:28;;;;;;;13.02;11.80;;;;;;;;;;5071457;28;20056;-62
2023/06/17 05:06:55;;;;;;;12.35;11.35;;;;;;;;;;5071024;28;20579;-61
2023/06/17 05:09:22;;;;;;;12.57;11.38;;;;;;;;;;5070934;28;20049;-62
2023/06/17 05:11:49;;;;;;;12.10;11.07;;;;;;;;;;5071208;28;20168;-62
2023/06/17 05:14:15;;;;;;;12.17;11.07;;;;;;;;;;5072022;28;20488;-61
2023/06/17 05:16:42;;;;;;;12.77;10.30;;;;;;;;;;5075393;28;20284;-62
2023/06/17 05:19:08;;;;;;;12.07;10.88;;;;;;;;;;5075052;28;20049;-61
2023/06/17 05:21:35;;;;;;;11.18;10.07;;;;;;;;;;5074768;28;20057;-62
2023/06/17 05:24:01;;;;;;;11.68;10.63;;;;;;;;;;5074658;28;20524;-62
2023/06/17 05:26:29;;;;;;;11.88;10.82;;;;;;;;;;5074651;28;20052;-61
2023/06/17 05:28:55;;;;;;;11.70;10.65;;;;;;;;;;5074821;28;20052;-61
2023/06/17 05:31:22;;;;;;;11.25;10.35;;;;;;;;;;5074420;28;20423;-61
2023/06/17 05:33:49;;;;;;;12.35;11.07;;;;;;;;;;5074874;28;20048;-62
2023/06/17 05:36:15;;;;;;;11.77;10.77;;;;;;;;;;5074336;28;20504;-61
2023/06/17 05:38:42;;;;;;;12.45;10.55;;;;;;;;;;5074744;28;20105;-62
2023/06/17 05:41:08;;;;;;;12.45;11.25;;;;;;;;;;5074621;28;20056;-61
2023/06/17 05:43:34;;;;;;;12.43;11.13;;;;;;;;;;5074305;28;20059;-60
2023/06/17 05:46:01;;;;;;;12.15;11.05;;;;;;;;;;5074235;28;20106;-61
2023/06/17 05:48:27;;;;;;;12.18;10.98;;;;;;;;;;5074163;28;20044;-61
2023/06/17 05:50:54;;;;;;;11.68;10.57;;;;;;;;;;5074205;28;20071;-60
2023/06/17 05:53:20;;;;;;;10.55;9.75;;;;;;;;;;5074312;28;20055;-61
2023/06/17 05:55:47;;;;;;;10.65;9.75;;;;;;;;;;5074385;28;20052;-61
2023/06/17 05:58:13;;;;;;;10.10;9.30;;;;;;;;;;5074143;28;20056;-62
2023/06/17 06:00:40;;;;;;;13.00;11.75;;;;;;;;;;5074207;28;20382;-62
2023/06/17 06:03:06;;;;;;;13.98;12.55;;;;;;;;;;5074052;28;20040;-62
2023/06/17 06:05:33;;;;;;;13.05;11.95;;;;;;;;;;5074083;28;20468;-61
2023/06/17 06:07:59;;;;;;;13.95;12.70;;;;;;;;;;5074014;28;20044;-62
2023/06/17 06:10:28;;;;;;;13.53;12.23;;;;;;;;;;5074040;28;20052;-62
2023/06/17 06:12:55;;;;;;;12.63;11.32;;;;;;;;;;5073829;28;20052;-61
2023/06/17 06:15:22;;;;;;;12.38;11.07;;;;;;;;;;5074067;28;20067;-62
2023/06/17 06:17:48;;;;;;;12.27;11.30;;;;;;;;;;5072905;28;20049;-62
2023/06/17 06:20:15;;;;;;;13.60;12.20;;;;;;;;;;5066018;28;20055;-62
2023/06/17 06:22:42;;;;;;;12.40;11.30;;;;;;;;;;5073548;28;20045;-62
2023/06/17 06:25:09;;;;;;;12.10;10.85;;;;;;;;;;5073551;28;20106;-62
2023/06/17 06:27:35;;;;;;;12.80;11.50;;;;;;;;;;5073657;28;20056;-61
2023/06/17 06:30:02;;;;;;;13.93;12.40;;;;;;;;;;5073824;28;20388;-62
2023/06/17 06:32:28;;;;;;;12.02;10.90;;;;;;;;;;5073644;28;20480;-62
2023/06/17 06:34:55;;;;;;;11.65;10.65;;;;;;;;;;5073679;28;20068;-62
2023/06/17 06:37:21;;;;;;;11.55;10.30;;;;;;;;;;5073658;28;20109;-62
2023/06/17 06:39:48;;;;;;;12.38;11.02;;;;;;;;;;5073566;28;20052;-62
2023/06/17 06:42:15;;;;;;;12.70;11.50;;;;;;;;;;5073352;28;20109;-63
2023/06/17 06:44:41;;;;;;;11.40;10.40;;;;;;;;;;5073461;28;20055;-62
2023/06/17 06:47:08;;;;;;;11.80;10.68;;;;;;;;;;5073106;28;20420;-61
2023/06/17 06:49:34;;;;;;;13.25;10.30;;;;;;;;;;5073302;28;20041;-62
2023/06/17 06:52:01;;;;;;;12.52;10.15;;;;;;;;;;5073303;28;20056;-61
2023/06/17 06:54:27;;;;;;;11.75;10.55;;;;;;;;;;5073247;28;20500;-61
2023/06/17 06:56:54;;;;;;;12.30;9.77;;;;;;;;;;5061252;28;20064;-61
2023/06/17 06:59:20;;;;;;;10.65;9.55;;;;;;;;;;5072878;28;20526;-61
2023/06/17 07:01:47;;;;;;;11.00;9.87;;;;;;;;;;5073056;28;20458;-62
2023/06/17 07:04:13;;;;;;;9.68;8.70;;;;;;;;;;5073151;28;20061;-62
2023/06/17 07:06:40;;;;;;;10.43;9.52;;;;;;;;;;5063264;28;20060;-62
2023/06/17 07:09:06;;;;;;;11.82;10.55;;;;;;;;;;5052869;28;20430;-62
2023/06/17 07:11:33;;;;;;;11.45;10.40;;;;;;;;;;5052664;28;20492;-62
2023/06/17 07:13:59;;;;;;;11.13;10.00;;;;;;;;;;5053164;28;20127;-61
2023/06/17 07:16:26;;;;;;;12.30;10.15;;;;;;;;;;5052592;28;20045;-62
2023/06/17 07:18:52;;;;;;;11.27;10.17;;;;;;;;;;5054319;28;20142;-61
2023/06/17 07:21:19;;;;;;;11.15;10.15;;;;;;;;;;5051355;28;20057;-63
2023/06/17 07:23:45;;;;;;;11.07;10.10;;;;;;;;;;5052083;28;20052;-62
2023/06/17 07:26:12;;;;;;;10.60;9.60;;;;;;;;;;5051929;28;20057;-62
2023/06/17 07:28:38;;;;;;;9.68;8.77;;;;;;;;;;5051985;28;20049;-63
2023/06/17 07:31:05;;;;;;;10.30;9.37;;;;;;;;;;5052074;28;20049;-62
2023/06/17 07:33:32;;;;;;;9.80;8.80;;;;;;;;;;5049214;28;20051;-62
2023/06/17 07:35:58;;;;;;;9.57;8.75;;;;;;;;;;5063279;28;20048;-62
2023/06/17 07:38:25;;;;;;;10.07;9.17;;;;;;;;;;5071035;28;20041;-62
2023/06/17 07:40:52;;;;;;;10.93;9.00;;;;;;;;;;5071525;28;20484;-62
2023/06/17 07:43:18;;;;;;;11.27;10.03;;;;;;;;;;5071405;28;20075;-62
2023/06/17 07:45:45;;;;;;;9.80;8.90;;;;;;;;;;5071811;28;20396;-63
2023/06/17 07:48:11;;;;;;;11.07;10.15;;;;;;;;;;5071282;28;20117;-62
2023/06/17 07:50:38;;;;;;;10.23;9.23;;;;;;;;;;5071492;28;20141;-61
2023/06/17 07:53:04;;;;;;;10.63;9.37;;;;;;;;;;5071717;28;20056;-62
2023/06/17 07:55:32;;;;;;;10.70;9.70;;;;;;;;;;5071362;28;20052;-62
2023/06/17 07:57:58;;;;;;;10.90;9.77;;;;;;;;;;5071373;28;20048;-62
2023/06/17 08:00:25;;;;;;;10.67;9.77;;;;;;;;;;5071599;28;20131;-62
2023/06/17 08:02:52;;;;;;;11.00;9.90;;;;;;;;;;5071477;28;20281;-62
2023/06/17 08:05:19;;;;;;;10.85;9.75;;;;;;;;;;5071197;28;20492;-62
2023/06/17 08:07:45;;;;;;;10.43;9.33;;;;;;;;;;5071304;28;20063;-62
2023/06/17 08:10:12;;;;;;;11.05;10.00;;;;;;;;;;5071349;28;20323;-62
2023/06/17 08:12:38;;;;;;;10.30;9.33;;;;;;;;;;5069796;28;20056;-62
2023/06/17 08:15:05;;;;;;;9.50;8.60;;;;;;;;;;5058051;28;20289;-62
2023/06/17 08:17:32;;;;;;;10.27;8.88;;;;;;;;;;5071184;28;20059;-62
2023/06/17 08:19:58;;;;;;;9.43;8.63;;;;;;;;;;5052132;28;20438;-62
2023/06/17 08:22:25;;;;;;;9.02;8.13;;;;;;;;;;5050151;28;20352;-63
2023/06/17 08:24:51;;;;;;;9.43;8.43;;;;;;;;;;5069229;28;20439;-62
2023/06/17 08:27:18;;;;;;;9.07;8.17;;;;;;;;;;5056677;28;20060;-62
2023/06/17 08:29:44;;;;;;;9.53;8.63;;;;;;;;;;5071179;28;20395;-62
2023/06/17 08:32:12;;;;;;;9.57;8.70;;;;;;;;;;5070999;28;20776;-63
2023/06/17 08:34:38;;;;;;;8.93;8.05;;;;;;;;;;5064034;28;20297;-62
2023/06/17 08:37:05;;;;;;;8.85;8.15;;;;;;;;;;5050848;28;20127;-62
2023/06/17 08:39:31;;;;;;;8.38;7.78;;;;;;;;;;5051037;28;20056;-62
2023/06/17 08:41:58;;;;;;;8.25;7.50;;;;;;;;;;5050700;28;20049;-62
2023/06/17 08:44:26;;;;;;;9.68;8.88;;;;;;;;;;5051034;28;20057;-62
2023/06/17 08:46:53;;;;;;;9.05;8.23;;;;;;;;;;5050380;28;20566;-62
2023/06/17 08:49:20;;;;;;;9.20;8.38;;;;;;;;;;5051670;28;20064;-62
2023/06/17 08:51:50;;;;;;;10.45;8.70;;;;;;;;;;5060791;28;20044;-62
2023/06/17 08:54:18;;;;;;;12.75;9.65;;;;;;;;;;5075347;28;20048;-62
2023/06/17 08:56:44;;;;;;;9.77;8.77;;;;;;;;;;5075005;28;20053;-63
2023/06/17 08:59:11;;;;;;;11.27;10.38;;;;;;;;;;5074841;28;20052;-63
2023/06/17 09:01:38;;;;;;;15.13;13.80;;;;;;;;;;5074805;28;20054;-63
2023/06/17 09:04:05;;;;;;;9.57;8.77;;;;;;;;;;5072036;28;20040;-64
2023/06/17 09:06:31;;;;;;;9.48;8.60;;;;;;;;;;5054723;28;20057;-62
2023/06/17 09:08:58;;;;;;;10.88;9.80;;;;;;;;;;5054811;28;20499;-63
2023/06/17 09:11:28;;;;;;;13.10;11.80;;;;;;;;;;5064056;28;20048;-62
2023/06/17 09:13:55;;;;;;;9.50;8.50;;;;;;;;;;5074788;28;20045;-62
2023/06/17 09:16:26;;;;;;;9.13;8.23;;;;;;;;;;5074304;28;20063;-62
2023/06/17 09:18:53;;;;;;;9.13;8.23;;;;;;;;;;5074599;28;20044;-63
2023/06/17 09:21:19;;;;;;;9.05;7.90;;;;;;;;;;5066347;28;20417;-63
2023/06/17 09:23:59;;;;;;;8.77;7.97;;;;;;;;;;5067709;28;20056;-62
2023/06/17 09:26:29;;;;;;;8.35;7.72;;;;;;;;;;5074418;28;20420;-61
2023/06/17 09:29:02;;;;;;;8.32;7.53;;;;;;;;;;5074288;28;20075;-62
2023/06/17 09:31:29;;;;;;;8.77;7.97;;;;;;;;;;5065965;28;20045;-62
2023/06/17 09:33:59;;;;;;;;;;;;;;;;;;5053817;28;20447;-62
2023/06/17 09:36:25;;;;;;;7.93;7.25;;;;;;;;;;5060435;28;19921;-62
2023/06/17 09:38:52;;;;;;;7.45;6.72;;;;;;;;;;5064646;28;20397;-62
2023/06/17 09:41:20;;;;;;;;;;;;;;;;;;5066684;28;20499;-62
2023/06/17 09:43:53;;;;;;;7.32;6.72;;;;;;;;;;5073519;28;19931;-65
2023/06/17 09:46:29;;;;;;;9.07;7.65;;;;;;;;;;5053285;28;20520;-65
2023/06/17 09:48:57;;;;;;;8.95;8.20;;;;;;;;;;5052657;28;20505;-65
2023/06/17 09:51:25;;;;;;;7.57;6.88;;;;;;;;;;5052832;28;20152;-65
2023/06/17 09:53:52;;;;;;;8.95;8.05;;;;;;;;;;5055568;28;20466;-66
2023/06/17 09:56:20;;;;;;;8.10;7.50;;;;;;;;;;5070234;28;20408;-64
2023/06/17 09:58:47;;;;;;;9.63;7.18;;;;;;;;;;5071060;28;20052;-65
2023/06/17 10:01:14;;;;;;;7.22;6.72;;;;;;;;;;5050784;28;20056;-65
2023/06/17 10:03:40;;;;;;;7.93;7.18;;;;;;;;;;5069613;28;20445;-65
2023/06/17 10:06:10;;;;;;;7.15;6.45;;;;;;;;;;5070068;28;20080;-65
2023/06/17 10:08:39;;;;;;;6.30;5.80;;;;;;;;;;5069810;28;20059;-65
2023/06/17 10:11:05;;;;;;;6.32;5.70;;;;;;;;;;5069215;28;20131;-66
2023/06/17 10:13:35;;;;;;;6.05;5.55;;;;;;;;;;5070279;28;20459;-65
2023/06/17 10:16:03;;;;;;;5.45;4.97;;;;;;;;;;5070993;28;20054;-65
2023/06/17 10:18:30;;;;;;;5.82;5.28;;;;;;;;;;5070752;28;20049;-65
2023/06/17 10:20:57;;;;;;;5.75;5.18;;;;;;;;;;5069251;28;20055;-65
2023/06/17 10:23:27;;;;;;;5.18;4.78;;;;;;;;;;5070565;28;20050;-65
2023/06/17 10:25:53;;;;;;;5.07;4.68;;;;;;;;;;5071061;28;20052;-65
2023/06/17 10:28:20;;;;;;;5.60;5.20;;;;;;;;;;5071192;28;20052;-65
2023/06/17 10:30:49;;;;;;;5.40;4.90;;;;;;;;;;5070267;28;20052;-65
2023/06/17 10:33:15;;;;;;;5.53;5.00;;;;;;;;;;5070922;28;20052;-65
2023/06/17 10:35:43;;;;;;;4.80;4.50;;;;;;;;;;5068633;28;20095;-65
2023/06/17 10:38:26;;;;;;;5.82;5.22;;;;;;;;;;5070647;28;20500;-65
2023/06/17 10:40:52;;;;;;;5.25;4.85;;;;;;;;;;5071569;28;20102;-66
2023/06/17 10:43:19;;;;;;;4.90;4.50;;;;;;;;;;5071818;28;20052;-65
2023/06/17 10:48:29;;;;;;;5.55;5.05;;;;;;;;;;5068311;28;20387;-66
2023/06/17 10:51:03;;;;;;;5.35;4.85;;;;;;;;;;5067062;28;20068;-66
2023/06/17 10:53:30;;;;;;;4.95;4.43;;;;;;;;;;5067359;28;20408;-66
2023/06/17 10:55:58;;;;;;;4.85;4.45;;;;;;;;;;5066964;28;20057;-66
2023/06/17 10:58:31;;;;;;;5.35;4.55;;;;;;;;;;5065963;28;20053;-66
2023/06/17 11:00:58;;;;;;;4.82;4.38;;;;;;;;;;5066979;28;20045;-66
2023/06/17 11:03:25;;;;;;;4.72;4.35;;;;;;;;;;5053901;28;20409;-67
2023/06/17 11:05:53;;;;;;;5.93;4.55;;;;;;;;;;5064436;28;20053;-66
2023/06/17 11:08:19;;;;;;;4.38;3.88;;;;;;;;;;5068041;28;20056;-66
2023/06/17 11:10:46;;;;;;;4.70;4.40;;;;;;;;;;5047654;28;20469;-65
2023/06/17 11:13:12;;;;;;;6.90;4.10;;;;;;;;;;5042899;28;20076;-65
2023/06/17 11:15:39;;;;;;;4.70;4.30;;;;;;;;;;5066754;28;20086;-65
2023/06/17 11:18:06;;;;;;;5.05;4.75;;;;;;;;;;5067059;28;20060;-65
2023/06/17 11:20:34;;;;;;;5.30;4.75;;;;;;;;;;5067713;28;20099;-65
2023/06/17 11:23:04;;;;;;;5.00;4.40;;;;;;;;;;5066351;28;20136;-65
2023/06/17 11:25:31;;;;;;;5.82;4.95;;;;;;;;;;5066026;28;20052;-65
2023/06/17 11:28:11;;;;;;;4.88;4.53;;;;;;;;;;5065795;28;20052;-65
2023/06/17 11:30:38;;;;;;;4.78;4.38;;;;;;;;;;5065583;28;20049;-66
2023/06/17 11:33:05;;;;;;;4.28;3.90;;;;;;;;;;5066708;28;20048;-65
2023/06/17 11:35:33;;;;;;;4.60;4.20;;;;;;;;;;5067521;28;20118;-66
2023/06/17 11:37:59;;;;;;;4.75;4.22;;;;;;;;;;5067569;28;20057;-66
2023/06/17 11:40:27;;;;;;;4.47;4.07;;;;;;;;;;5067235;28;20467;-67
2023/06/17 11:42:55;;;;;;;4.05;3.65;;;;;;;;;;5067349;28;20390;-67
2023/06/17 11:45:22;;;;;;;3.55;3.25;;;;;;;;;;5067148;28;20053;-65
2023/06/17 11:47:48;;;;;;;4.30;3.90;;;;;;;;;;5065700;28;20459;-65
2023/06/17 11:50:15;;;;;;;4.13;3.83;;;;;;;;;;5067345;28;20127;-65
2023/06/17 11:52:51;;;;;;;4.28;3.97;;;;;;;;;;5067070;28;20132;-64
2023/06/17 11:55:18;;;;;;;4.10;3.60;;;;;;;;;;5066217;28;20061;-65
2023/06/17 11:57:44;;;;;;;3.72;3.42;;;;;;;;;;5056451;28;20049;-63
2023/06/17 12:00:11;;;;;;;3.75;3.45;;;;;;;;;;5032902;28;20513;-64
2023/06/17 12:02:38;;;;;;;3.40;3.20;;;;;;;;;;5052266;28;20059;-65
2023/06/17 12:05:05;;;;;;;3.67;3.03;;;;;;;;;;5039573;28;20092;-63
2023/06/17 12:07:41;;;;;;;3.92;3.00;;;;;;;;;;5037237;28;20103;-64
2023/06/17 12:10:10;;;;;;;3.55;2.85;;;;;;;;;;5043473;28;20044;-63
2023/06/17 12:12:37;;;;;;;3.40;3.03;;;;;;;;;;5053484;28;20504;-63
2023/06/17 12:15:06;;;;;;;3.20;2.90;;;;;;;;;;5053556;28;20079;-64
2023/06/17 12:17:43;;;;;;;3.30;3.08;;;;;;;;;;5052989;28;20095;-62
2023/06/17 12:20:17;;;;;;;3.05;2.80;;;;;;;;;;5048737;28;20556;-65
2023/06/17 12:22:44;;;;;;;4.07;3.33;;;;;;;;;;5049395;28;20436;-62
2023/06/17 12:25:11;;;;;;;3.00;2.80;;;;;;;;;;5051575;28;20382;-62
2023/06/17 12:27:38;;;;;;;5.55;3.90;;;;;;;;;;5052745;28;20041;-62
2023/06/17 12:30:05;;;;;;;3.35;3.08;;;;;;;;;;5052743;28;20048;-62
2023/06/17 12:32:31;;;;;;;3.70;3.35;;;;;;;;;;5053952;28;20408;-62
2023/06/17 12:34:58;;;;;;;3.65;3.35;;;;;;;;;;5053624;28;20131;-62
2023/06/17 12:37:29;;;;;;;3.80;3.50;;;;;;;;;;5053862;28;20072;-62
2023/06/17 12:39:57;;;;;;;3.33;3.03;;;;;;;;;;5053944;28;20451;-61
2023/06/17 12:42:24;;;;;;;3.60;3.30;;;;;;;;;;5053595;28;20057;-62
2023/06/17 12:44:51;;;;;;;3.60;3.30;;;;;;;;;;5053478;28;20041;-61
2023/06/17 12:47:18;;;;;;;4.40;3.65;;;;;;;;;;5053114;28;20278;-62
2023/06/17 12:49:45;;;;;;;4.30;3.90;;;;;;;;;;5053541;28;20075;-62
2023/06/17 12:52:12;;;;;;;3.45;3.13;;;;;;;;;;5053597;28;20045;-62
2023/06/17 12:54:38;;;;;;;3.80;3.50;;;;;;;;;;5053270;28;20048;-62
2023/06/17 12:57:05;;;;;;;3.72;3.47;;;;;;;;;;5053570;28;20397;-62
2023/06/17 12:59:32;;;;;;;3.53;3.25;;;;;;;;;;5053265;28;20068;-62
2023/06/17 13:01:58;;;;;;;3.88;3.45;;;;;;;;;;5053392;28;20049;-62
2023/06/17 13:04:25;;;;;;;4.05;3.75;;;;;;;;;;5053434;28;20052;-62
2023/06/17 13:06:52;;;;;;;3.58;3.28;;;;;;;;;;5053153;28;20053;-61
2023/06/17 13:09:19;;;;;;;3.47;3.13;;;;;;;;;;5052959;28;20056;-62
2023/06/17 13:11:46;;;;;;;4.22;3.65;;;;;;;;;;5052634;28;20053;-62
2023/06/17 13:14:12;;;;;;;4.57;3.80;;;;;;;;;;5052878;28;20040;-62
2023/06/17 13:16:40;;;;;;;3.92;3.65;;;;;;;;;;5053193;28;20052;-62
2023/06/17 13:19:07;;;;;;;3.80;3.50;;;;;;;;;;5052842;28;20049;-62
2023/06/17 13:21:34;;;;;;;4.28;3.40;;;;;;;;;;5052835;28;20052;-62
2023/06/17 13:24:00;;;;;;;3.38;3.17;;;;;;;;;;5052871;28;20060;-62
2023/06/17 13:26:29;;;;;;;3.53;3.22;;;;;;;;;;5053015;28;20041;-62
2023/06/17 13:29:01;;;;;;;3.50;3.20;;;;;;;;;;5052659;28;20045;-62
2023/06/17 13:31:27;;;;;;;3.90;3.38;;;;;;;;;;5052666;28;20051;-62
2023/06/17 13:33:56;;;;;;;3.67;3.38;;;;;;;;;;5052748;28;20048;-62
2023/06/17 13:36:23;;;;;;;3.40;3.20;;;;;;;;;;5052469;28;20056;-62
2023/06/17 13:38:50;;;;;;;3.85;3.55;;;;;;;;;;5052448;28;20554;-62
2023/06/17 13:41:16;;;;;;;3.72;3.40;;;;;;;;;;5051032;28;20520;-62
2023/06/17 13:43:43;;;;;;;3.72;3.38;;;;;;;;;;5052389;28;20056;-62
2023/06/17 13:46:10;;;;;;;3.42;3.13;;;;;;;;;;5052301;28;20057;-61
2023/06/17 13:48:36;;;;;;;3.50;3.20;;;;;;;;;;5052214;28;20056;-62
2023/06/17 13:51:03;;;;;;;3.10;2.90;;;;;;;;;;5052254;28;20049;-62
2023/06/17 13:53:33;;;;;;;3.15;2.85;;;;;;;;;;5052162;28;20049;-61
2023/06/17 13:55:59;;;;;;;3.55;3.30;;;;;;;;;;5052211;28;20048;-61
2023/06/17 13:58:26;;;;;;;4.05;3.63;;;;;;;;;;5051941;28;20441;-62
2023/06/17 14:00:53;;;;;;;4.03;3.72;;;;;;;;;;5052267;28;20421;-61
2023/06/17 14:03:20;;;;;;;4.22;3.88;;;;;;;;;;5051990;28;20281;-62
2023/06/17 14:05:46;;;;;;;4.00;3.67;;;;;;;;;;5051907;28;20053;-61
2023/06/17 14:08:13;;;;;;;3.63;3.33;;;;;;;;;;5051806;28;20574;-62
2023/06/17 14:10:40;;;;;;;3.72;3.42;;;;;;;;;;5051860;28;20512;-61
2023/06/17 14:13:06;;;;;;;4.28;3.67;;;;;;;;;;5051836;28;20045;-61
2023/06/17 14:15:33;;;;;;;3.72;3.45;;;;;;;;;;5051158;28;20052;-63
2023/06/17 14:17:59;;;;;;;5.57;3.80;;;;;;;;;;5048182;28;20558;-61
2023/06/17 14:20:26;;;;;;;4.13;3.80;;;;;;;;;;5029877;28;20418;-61
2023/06/17 14:22:56;;;;;;;3.60;3.30;;;;;;;;;;5050713;28;20106;-61
2023/06/17 14:25:24;;;;;;;3.92;3.35;;;;;;;;;;5049703;28;20055;-62
2023/06/17 14:27:51;;;;;;;3.20;3.00;;;;;;;;;;5045124;28;20049;-61
2023/06/17 14:30:18;;;;;;;3.60;3.40;;;;;;;;;;5049533;28;20045;-61
2023/06/17 14:32:45;;;;;;;3.42;3.13;;;;;;;;;;5050198;28;20045;-62
2023/06/17 14:35:13;;;;;;;3.30;2.90;;;;;;;;;;5050299;28;20560;-62
2023/06/17 14:37:40;;;;;;;3.85;3.45;;;;;;;;;;5049970;28;20416;-61
2023/06/17 14:40:07;;;;;;;3.22;3.00;;;;;;;;;;5049709;28;20052;-60